createdAt,value
2019-01-16T00:02:15.059Z,12.13
2019-01-16T00:05:02.038Z,13.13
2019-01-16T00:07:44.916Z,11.97
2019-01-16T00:10:18.956Z,11.47
2019-01-16T00:12:49.959Z,12.30
2019-01-16T00:15:38.681Z,10.90
2019-01-16T00:18:21.798Z,11.00
2019-01-16T00:20:52.851Z,10.67
2019-01-16T00:23:35.664Z,11.20
2019-01-16T00:26:09.359Z,10.60
2019-01-16T00:28:53.934Z,10.27
2019-01-16T00:31:25.086Z,10.13
2019-01-16T00:33:56.092Z,10.63
2019-01-16T00:36:29.872Z,9.73
2019-01-16T00:39:15.756Z,9.83
2019-01-16T00:41:52.778Z,8.77
2019-01-16T00:44:26.212Z,9.23
2019-01-16T00:46:57.260Z,8.93
2019-01-16T00:49:31.054Z,8.43
2019-01-16T00:52:10.954Z,9.10
2019-01-16T00:54:59.645Z,8.73
2019-01-16T00:57:33.648Z,8.87
2019-01-16T01:00:22.430Z,8.37
2019-01-16T01:02:59.464Z,8.23
2019-01-16T01:05:36.824Z,9.03
2019-01-16T01:08:13.717Z,9.40
2019-01-16T01:10:51.066Z,9.33
2019-01-16T01:13:25.141Z,7.83
2019-01-16T01:16:02.222Z,8.83
2019-01-16T01:18:40.942Z,8.50
2019-01-16T01:21:15.078Z,8.63
2019-01-16T01:23:46.238Z,8.77
2019-01-16T01:26:23.304Z,9.23
2019-01-16T01:29:09.094Z,9.43
2019-01-16T01:31:40.177Z,9.17
2019-01-16T01:34:11.320Z,9.20
2019-01-16T01:36:50.969Z,8.80
2019-01-16T01:39:31.165Z,8.97
2019-01-16T01:42:18.066Z,8.87
2019-01-16T01:44:49.129Z,9.23
2019-01-16T01:47:23.157Z,8.53
2019-01-16T01:49:56.834Z,9.00
2019-01-16T01:52:30.754Z,8.87
2019-01-16T01:55:08.006Z,9.43
2019-01-16T01:57:39.098Z,8.50
2019-01-16T02:00:14.855Z,9.03
2019-01-16T02:03:02.288Z,9.40
2019-01-16T02:05:36.220Z,8.90
2019-01-16T02:08:15.895Z,9.23
2019-01-16T02:10:49.746Z,8.53
2019-01-16T02:13:20.804Z,9.50
2019-01-16T02:15:52.414Z,9.40
2019-01-16T02:18:23.450Z,9.57
2019-01-16T02:20:57.273Z,9.13
2019-01-16T02:23:44.002Z,9.07
2019-01-16T02:26:24.175Z,9.00
2019-01-16T02:28:55.276Z,9.77
2019-01-16T02:31:29.283Z,9.90
2019-01-16T02:34:15.044Z,10.17
2019-01-16T02:36:46.086Z,10.20
2019-01-16T02:39:19.811Z,10.07
2019-01-16T02:41:52.552Z,11.30
2019-01-16T02:44:29.227Z,9.03
2019-01-16T02:47:03.154Z,9.60
2019-01-16T02:49:34.216Z,10.10
2019-01-16T02:52:11.203Z,9.53
2019-01-16T02:55:00.333Z,8.97
2019-01-16T02:57:31.538Z,9.23
2019-01-16T03:00:05.229Z,8.70
2019-01-16T03:02:36.301Z,8.63
2019-01-16T03:05:25.527Z,9.13
2019-01-16T03:07:56.716Z,8.13
2019-01-16T03:10:43.991Z,8.73
2019-01-16T03:13:20.517Z,8.17
2019-01-16T03:16:07.854Z,8.27
2019-01-16T03:18:55.437Z,7.83
2019-01-16T03:21:26.509Z,7.60
2019-01-16T03:24:17.770Z,7.47
2019-01-16T03:26:49.128Z,7.60
2019-01-16T03:29:36.000Z,7.43
2019-01-16T03:32:26.523Z,7.93
2019-01-16T03:34:57.727Z,7.40
2019-01-16T03:37:30.503Z,7.20
2019-01-16T03:40:10.421Z,7.30
2019-01-16T03:42:49.170Z,7.13
2019-01-16T03:45:23.433Z,7.00
2019-01-16T03:47:57.413Z,7.23
2019-01-16T03:50:28.469Z,7.27
2019-01-16T03:52:59.497Z,6.30
2019-01-16T03:55:39.423Z,6.00
2019-01-16T03:58:22.408Z,6.10
2019-01-16T04:01:09.512Z,6.30
2019-01-16T04:03:43.624Z,5.60
2019-01-16T04:06:17.773Z,6.23
2019-01-16T04:08:51.594Z,6.07
2019-01-16T04:11:38.959Z,5.73
2019-01-16T04:14:12.727Z,4.93
2019-01-16T04:16:58.633Z,6.57
2019-01-16T04:19:32.269Z,5.43
2019-01-16T04:22:21.254Z,5.23
2019-01-16T04:25:08.216Z,5.60
2019-01-16T04:27:55.297Z,5.27
2019-01-16T04:30:26.421Z,4.80
2019-01-16T04:33:13.467Z,4.73
2019-01-16T04:35:59.333Z,5.27
2019-01-16T04:38:33.427Z,5.13
2019-01-16T04:41:20.814Z,5.23
2019-01-16T04:43:55.005Z,5.07
2019-01-16T04:46:41.181Z,4.80
2019-01-16T04:49:20.805Z,5.00
2019-01-16T04:51:51.821Z,4.83
2019-01-16T04:54:28.705Z,4.60
2019-01-16T04:56:59.857Z,4.30
2019-01-16T04:59:46.983Z,4.23
2019-01-16T05:02:20.525Z,4.60
2019-01-16T05:04:54.417Z,4.57
2019-01-16T05:07:31.346Z,4.40
2019-01-16T05:10:05.139Z,4.20
2019-01-16T05:12:39.097Z,3.70
2019-01-16T05:15:16.053Z,3.50
2019-01-16T05:17:49.796Z,3.90
2019-01-16T05:20:36.857Z,3.73
2019-01-16T05:23:13.407Z,3.80
2019-01-16T05:25:52.959Z,3.30
2019-01-16T05:28:30.065Z,3.73
2019-01-16T05:31:18.829Z,4.03
2019-01-16T05:33:52.900Z,3.93
2019-01-16T05:36:35.984Z,3.70
2019-01-16T05:39:14.772Z,3.60
2019-01-16T05:41:54.929Z,3.33
2019-01-16T05:44:40.824Z,3.30
2019-01-16T05:47:17.899Z,3.47
2019-01-16T05:49:51.681Z,3.50
2019-01-16T05:52:31.526Z,4.03
2019-01-16T05:55:20.583Z,3.10
2019-01-16T05:58:09.744Z,3.60
2019-01-16T06:00:40.850Z,3.53
2019-01-16T06:03:11.853Z,3.53
2019-01-16T06:05:43.044Z,3.40
2019-01-16T06:08:30.338Z,3.63
2019-01-16T06:11:16.261Z,3.70
2019-01-16T06:13:49.893Z,3.30
2019-01-16T06:16:21.016Z,3.80
2019-01-16T06:19:08.109Z,4.27
2019-01-16T06:21:39.131Z,3.83
2019-01-16T06:24:25.883Z,4.10
2019-01-16T06:27:13.300Z,4.17
2019-01-16T06:29:53.109Z,4.00
2019-01-16T06:32:38.951Z,4.37
2019-01-16T06:35:26.229Z,4.60
2019-01-16T06:38:09.477Z,5.13
2019-01-16T06:40:46.253Z,5.20
2019-01-16T06:43:17.473Z,5.27
2019-01-16T06:45:54.340Z,4.83
2019-01-16T06:48:25.479Z,5.37
2019-01-16T06:50:56.605Z,5.80
2019-01-16T06:53:30.466Z,5.17
2019-01-16T06:56:19.553Z,5.53
2019-01-16T06:59:02.503Z,6.20
2019-01-16T07:01:39.437Z,5.60
2019-01-16T07:04:13.246Z,5.57
2019-01-16T07:06:44.393Z,5.40
2019-01-16T07:09:21.096Z,6.10
2019-01-16T07:11:55.233Z,5.07
2019-01-16T07:14:26.381Z,5.93
2019-01-16T07:17:00.125Z,6.10
2019-01-16T07:19:37.010Z,5.97
2019-01-16T07:22:19.863Z,6.03
2019-01-16T07:24:54.686Z,5.90
2019-01-16T07:27:25.761Z,7.03
2019-01-16T07:29:59.275Z,6.50
2019-01-16T07:32:47.071Z,6.83
2019-01-16T07:35:30.403Z,6.63
2019-01-16T07:38:03.961Z,7.90
2019-01-16T07:40:44.007Z,7.43
2019-01-16T07:43:20.945Z,7.37
2019-01-16T07:45:54.555Z,7.90
2019-01-16T07:48:37.597Z,7.60
2019-01-16T07:51:11.113Z,7.43
2019-01-16T07:53:54.322Z,7.97
2019-01-16T07:56:25.401Z,8.67
2019-01-16T07:59:03.115Z,8.80
2019-01-16T08:01:37.117Z,10.60
2019-01-16T08:04:10.971Z,11.30
2019-01-16T08:06:50.797Z,13.47
2019-01-16T08:09:21.949Z,12.70
2019-01-16T08:11:52.931Z,13.77
2019-01-16T08:14:27.176Z,13.50
2019-01-16T08:17:07.131Z,13.43
2019-01-16T08:19:50.004Z,13.77
2019-01-16T08:22:32.644Z,13.63
2019-01-16T08:25:03.750Z,14.97
2019-01-16T08:27:37.539Z,15.33
2019-01-16T08:30:24.157Z,14.67
2019-01-16T08:33:04.093Z,14.83
2019-01-16T08:35:51.260Z,16.97
2019-01-16T08:38:22.377Z,14.33
2019-01-16T08:41:05.605Z,15.67
2019-01-16T08:43:42.442Z,13.90
2019-01-16T08:46:19.595Z,13.67
2019-01-16T08:49:06.988Z,12.93
2019-01-16T08:51:44.258Z,12.83
2019-01-16T08:54:27.915Z,13.67
2019-01-16T08:56:59.777Z,14.00
2019-01-16T08:59:47.331Z,12.97
2019-01-16T09:02:36.043Z,14.40
2019-01-16T09:05:12.564Z,12.20
2019-01-16T09:07:50.471Z,12.47
2019-01-16T09:10:38.634Z,13.17
2019-01-16T09:13:26.013Z,12.63
2019-01-16T09:16:02.820Z,12.50
2019-01-16T09:18:42.667Z,12.83
2019-01-16T09:21:25.809Z,12.03
2019-01-16T09:23:59.467Z,11.27
2019-01-16T09:26:30.512Z,11.40
2019-01-16T09:29:01.725Z,10.77
2019-01-16T09:31:33.134Z,10.63
2019-01-16T09:34:10.029Z,10.43
2019-01-16T09:36:47.067Z,10.63
2019-01-16T09:39:21.993Z,9.67
2019-01-16T09:42:02.222Z,11.10
2019-01-16T09:44:36.320Z,12.17
2019-01-16T09:47:22.134Z,11.13
2019-01-16T09:49:55.903Z,11.30
2019-01-16T09:52:35.838Z,10.77
2019-01-16T09:55:08.709Z,11.73
2019-01-16T09:57:51.780Z,12.33
2019-01-16T10:00:39.436Z,11.53
2019-01-16T10:03:26.308Z,10.47
2019-01-16T10:06:12.596Z,10.37
2019-01-16T10:08:48.114Z,11.73
2019-01-16T10:11:22.290Z,11.40
2019-01-16T10:13:54.168Z,10.50
2019-01-16T10:16:27.852Z,11.07
2019-01-16T10:18:58.984Z,10.50
2019-01-16T10:21:39.300Z,11.03
2019-01-16T10:24:12.994Z,11.10
2019-01-16T10:26:46.848Z,10.37
2019-01-16T10:29:30.004Z,10.77
2019-01-16T10:32:04.159Z,11.13
2019-01-16T10:34:51.096Z,10.67
2019-01-16T10:37:31.290Z,10.73
2019-01-16T10:40:03.580Z,10.80
2019-01-16T10:42:38.054Z,11.20
2019-01-16T10:45:14.881Z,10.63
2019-01-16T10:47:54.926Z,11.07
2019-01-16T10:50:40.830Z,10.73
2019-01-16T10:53:14.758Z,11.10
2019-01-16T10:56:01.067Z,11.50
2019-01-16T10:58:37.936Z,10.63
2019-01-16T11:01:09.062Z,10.97
2019-01-16T11:03:52.381Z,11.33
2019-01-16T11:06:41.705Z,12.77
2019-01-16T11:09:27.638Z,10.50
2019-01-16T11:12:01.734Z,11.17
2019-01-16T11:14:50.540Z,10.83
2019-01-16T11:17:33.731Z,10.13
2019-01-16T11:20:14.475Z,10.73
2019-01-16T11:22:51.392Z,9.90
2019-01-16T11:25:22.572Z,9.93
2019-01-16T11:28:05.734Z,10.73
2019-01-16T11:30:52.864Z,9.23
2019-01-16T11:33:23.999Z,9.63
2019-01-16T11:36:00.749Z,9.90
2019-01-16T11:38:49.965Z,9.13
2019-01-16T11:41:26.946Z,9.17
2019-01-16T11:44:16.824Z,9.00
2019-01-16T11:46:47.999Z,8.97
2019-01-16T11:49:35.410Z,6.97
2019-01-16T11:52:21.394Z,7.17
2019-01-16T11:55:08.740Z,6.43
2019-01-16T11:57:42.552Z,7.57
2019-01-16T12:00:27.280Z,7.00
2019-01-16T12:02:58.294Z,7.53
2019-01-16T12:05:29.419Z,7.13
2019-01-16T12:08:12.281Z,8.40
2019-01-16T12:10:43.454Z,8.23
2019-01-16T12:13:15.152Z,7.73
2019-01-16T12:15:46.310Z,7.23
2019-01-16T12:18:17.407Z,7.77
2019-01-16T12:20:48.744Z,7.83
2019-01-16T12:23:22.974Z,7.63
2019-01-16T12:26:10.658Z,8.13
2019-01-16T12:28:51.607Z,8.13
2019-01-16T12:31:38.593Z,7.50
2019-01-16T12:34:12.750Z,7.13
2019-01-16T12:36:51.106Z,7.93
2019-01-16T12:39:24.891Z,8.43
2019-01-16T12:41:59.774Z,8.33
2019-01-16T12:44:42.617Z,7.87
2019-01-16T12:47:19.822Z,7.40
2019-01-16T12:50:00.185Z,7.20
2019-01-16T12:55:23.882Z,8.17
2019-01-16T12:57:54.980Z,8.63
2019-01-16T13:00:26.278Z,8.10
2019-01-16T13:03:09.220Z,8.17
2019-01-16T13:05:40.432Z,8.10
2019-01-16T13:08:11.560Z,8.37
2019-01-16T13:10:48.772Z,8.50
2019-01-16T13:13:20.122Z,8.57
2019-01-16T13:15:57.048Z,9.83
2019-01-16T13:18:28.362Z,8.73
2019-01-16T13:20:59.567Z,9.57
2019-01-16T13:23:33.519Z,9.00
2019-01-16T13:26:10.726Z,8.20
2019-01-16T13:28:53.904Z,8.97
2019-01-16T13:31:31.064Z,10.07
2019-01-16T13:34:02.196Z,9.10
2019-01-16T13:36:49.369Z,8.93
2019-01-16T13:39:32.469Z,9.03
2019-01-16T13:42:12.622Z,9.27
2019-01-16T13:44:46.697Z,8.70
2019-01-16T13:47:32.741Z,8.67
2019-01-16T13:50:18.689Z,8.43
2019-01-16T13:52:52.637Z,8.97
2019-01-16T13:55:26.386Z,8.83
2019-01-16T13:57:57.647Z,9.43
2019-01-16T14:00:48.716Z,8.77
2019-01-16T14:03:35.848Z,9.10
2019-01-16T14:06:10.184Z,8.93
2019-01-16T14:08:44.115Z,9.67
2019-01-16T14:11:27.502Z,9.03
2019-01-16T14:14:14.599Z,9.83
2019-01-16T14:16:54.904Z,9.13
2019-01-16T14:19:26.381Z,9.53
2019-01-16T14:22:12.585Z,9.90
2019-01-16T14:24:46.529Z,8.80
2019-01-16T14:27:20.838Z,8.57
2019-01-16T14:29:52.090Z,9.60
2019-01-16T14:32:32.259Z,8.23
2019-01-16T14:35:09.225Z,8.50
2019-01-16T14:37:55.175Z,9.30
2019-01-16T14:40:26.335Z,9.67
2019-01-16T14:43:13.504Z,8.83
2019-01-16T14:45:47.523Z,8.93
2019-01-16T14:48:30.570Z,10.00
2019-01-16T14:51:01.697Z,9.60
2019-01-16T14:53:41.671Z,9.50
2019-01-16T14:56:13.197Z,9.97
2019-01-16T14:58:44.311Z,8.83
2019-01-16T15:01:31.537Z,9.07
2019-01-16T15:04:02.834Z,8.80
2019-01-16T15:06:33.935Z,9.20
2019-01-16T15:09:15.513Z,9.23
2019-01-16T15:11:55.609Z,9.73
2019-01-16T15:14:43.001Z,9.10
2019-01-16T15:17:22.933Z,9.30
2019-01-16T15:19:58.283Z,9.47
2019-01-16T15:22:35.246Z,8.93
2019-01-16T15:25:24.157Z,9.50
2019-01-16T15:28:11.203Z,10.13
2019-01-16T15:30:51.173Z,9.87
2019-01-16T15:33:31.279Z,11.00
2019-01-16T15:36:18.757Z,10.67
2019-01-16T15:38:58.881Z,10.33
2019-01-16T15:41:45.902Z,9.50
2019-01-16T15:44:19.923Z,9.50
2019-01-16T15:46:56.831Z,10.63
2019-01-16T15:49:33.869Z,9.80
2019-01-16T15:52:13.140Z,9.40
2019-01-16T15:54:46.020Z,9.27
2019-01-16T15:57:33.333Z,9.97
2019-01-16T16:00:20.695Z,10.30
2019-01-16T16:02:51.805Z,9.27
2019-01-16T16:05:25.889Z,10.27
2019-01-16T16:07:57.030Z,9.80
2019-01-16T16:10:30.849Z,10.50
2019-01-16T16:13:11.036Z,11.40
2019-01-16T16:15:45.281Z,10.63
2019-01-16T16:18:28.205Z,10.70
2019-01-16T16:21:14.422Z,10.93
2019-01-16T16:23:51.296Z,10.80
2019-01-16T16:26:22.415Z,12.03
2019-01-16T16:29:08.323Z,11.63
2019-01-16T16:31:42.428Z,12.10
2019-01-16T16:34:13.545Z,13.30
2019-01-16T16:36:50.753Z,11.57
2019-01-16T16:39:22.018Z,12.17
2019-01-16T16:41:53.155Z,13.23
2019-01-16T16:44:27.245Z,12.67
2019-01-16T16:47:04.253Z,12.97
2019-01-16T16:49:53.311Z,13.20
2019-01-16T16:52:30.469Z,13.17
2019-01-16T16:55:17.821Z,13.27
2019-01-16T16:57:51.927Z,13.57
2019-01-16T17:00:37.834Z,12.70
2019-01-16T17:03:24.623Z,13.33
2019-01-16T17:05:55.793Z,13.80
2019-01-16T17:08:38.727Z,13.63
2019-01-16T17:11:09.875Z,12.80
2019-01-16T17:13:48.880Z,13.10
2019-01-16T17:16:38.013Z,13.63
2019-01-16T17:19:25.488Z,12.93
2019-01-16T17:22:14.499Z,13.03
2019-01-16T17:24:54.592Z,12.87
2019-01-16T17:27:40.669Z,13.57
2019-01-16T17:30:17.428Z,12.10
2019-01-16T17:33:03.408Z,12.67
2019-01-16T17:35:34.601Z,13.70
2019-01-16T17:38:14.927Z,13.80
2019-01-16T17:41:01.312Z,14.33
2019-01-16T17:43:38.143Z,14.27
2019-01-16T17:46:21.313Z,14.53
2019-01-16T17:48:53.451Z,14.23
2019-01-16T17:51:24.678Z,15.30
2019-01-16T17:54:07.299Z,15.33
2019-01-16T17:56:44.373Z,14.77
2019-01-16T17:59:21.329Z,16.10
2019-01-16T18:02:01.414Z,16.47
2019-01-16T18:04:48.565Z,16.37
2019-01-16T18:07:25.624Z,15.60
2019-01-16T18:09:56.705Z,14.77
2019-01-16T18:12:27.818Z,16.27
2019-01-16T18:15:16.895Z,16.60
2019-01-16T18:17:50.327Z,16.43
2019-01-16T18:20:36.312Z,16.30
2019-01-16T18:23:14.599Z,17.20
2019-01-16T18:25:54.819Z,16.60
2019-01-16T18:28:25.907Z,16.90
2019-01-16T18:31:12.998Z,17.37
2019-01-16T18:34:00.211Z,16.80
2019-01-16T18:36:37.294Z,16.70
2019-01-16T18:39:10.263Z,16.93
2019-01-16T18:41:41.372Z,16.30
2019-01-16T18:44:12.475Z,16.20
2019-01-16T18:46:52.497Z,16.00
2019-01-16T18:49:26.334Z,15.13
2019-01-16T18:52:00.440Z,15.83
2019-01-16T18:54:34.178Z,15.53
2019-01-16T18:57:08.170Z,15.80
2019-01-16T18:59:42.240Z,16.07
2019-01-16T19:02:29.706Z,17.07
2019-01-16T19:05:17.017Z,16.03
2019-01-16T19:07:48.175Z,14.90
2019-01-16T19:10:25.047Z,15.33
2019-01-16T19:12:56.147Z,14.73
2019-01-16T19:15:44.833Z,14.67
2019-01-16T19:18:32.296Z,14.73
2019-01-16T19:21:03.426Z,14.67
2019-01-16T19:23:49.473Z,14.40
2019-01-16T19:26:20.663Z,15.10
2019-01-16T19:28:57.639Z,14.57
2019-01-16T19:31:31.749Z,14.93
2019-01-16T19:34:05.965Z,14.67
2019-01-16T19:36:49.210Z,14.70
2019-01-16T19:39:20.301Z,14.90
2019-01-16T19:42:07.666Z,14.67
2019-01-16T19:44:44.798Z,14.93
2019-01-16T19:47:15.883Z,13.70
2019-01-16T19:50:02.059Z,13.73
2019-01-16T19:52:35.844Z,14.07
2019-01-16T19:55:15.595Z,13.87
2019-01-16T19:58:04.788Z,14.40
2019-01-16T20:00:38.919Z,13.43
2019-01-16T20:03:26.267Z,14.33
2019-01-16T20:06:13.571Z,14.17
2019-01-16T20:08:44.695Z,13.70
2019-01-16T20:11:27.717Z,13.23
2019-01-16T20:14:13.735Z,13.40
2019-01-16T20:16:47.961Z,11.90
2019-01-16T20:19:25.158Z,12.20
2019-01-16T20:22:02.338Z,13.40
2019-01-16T20:24:42.141Z,12.83
2019-01-16T20:27:32.092Z,12.37
2019-01-16T20:30:03.252Z,12.93
2019-01-16T20:32:37.330Z,12.83
2019-01-16T20:35:12.305Z,13.43
2019-01-16T20:37:49.416Z,12.13
2019-01-16T20:40:36.456Z,12.57
2019-01-16T20:43:07.551Z,13.50
2019-01-16T20:45:50.871Z,13.03
2019-01-16T20:48:20.270Z,13.27
2019-01-16T20:50:57.235Z,12.63
2019-01-16T20:53:31.080Z,13.67
2019-01-16T20:56:18.548Z,14.40
2019-01-16T20:58:52.518Z,14.63
2019-01-16T21:01:29.526Z,13.63
2019-01-16T21:04:18.807Z,13.53
2019-01-16T21:06:53.094Z,13.13
2019-01-16T21:09:35.694Z,14.17
2019-01-16T21:12:24.662Z,14.27
2019-01-16T21:15:00.498Z,14.73
2019-01-16T21:17:46.514Z,15.63
2019-01-16T21:20:20.198Z,14.83
2019-01-16T21:23:08.254Z,16.00
2019-01-16T21:25:44.800Z,17.27
2019-01-16T21:28:16.452Z,16.13
2019-01-16T21:31:03.882Z,16.97
2019-01-16T21:33:35.054Z,17.47
2019-01-16T21:36:22.424Z,15.70
2019-01-16T21:38:59.780Z,16.83
2019-01-16T21:41:33.835Z,16.57
2019-01-16T21:44:07.850Z,15.83
2019-01-16T21:46:42.008Z,17.00
2019-01-16T21:49:15.970Z,16.50
2019-01-16T21:52:02.852Z,16.67
2019-01-16T21:54:45.647Z,16.70
2019-01-16T21:57:25.730Z,16.90
2019-01-16T22:00:13.110Z,16.57
2019-01-16T22:02:44.134Z,16.77
2019-01-16T22:05:30.968Z,19.00
2019-01-16T22:08:02.119Z,18.17
2019-01-16T22:10:49.458Z,17.37
2019-01-16T22:13:20.570Z,17.10
2019-01-16T22:16:00.420Z,18.33
2019-01-16T22:18:31.520Z,18.43
2019-01-16T22:21:02.654Z,17.90
2019-01-16T22:23:48.568Z,18.90
2019-01-16T22:26:34.370Z,18.63
2019-01-16T22:29:14.141Z,19.93
2019-01-16T22:31:47.662Z,19.37
2019-01-16T22:34:18.800Z,18.77
2019-01-16T22:36:55.710Z,18.23
2019-01-16T22:39:29.708Z,18.90
2019-01-16T22:42:09.994Z,20.23
2019-01-16T22:44:46.742Z,19.30
2019-01-16T22:47:17.890Z,18.87
2019-01-16T22:49:51.627Z,20.83
2019-01-16T22:52:25.676Z,20.73
2019-01-16T22:54:56.811Z,20.17
2019-01-16T22:57:39.866Z,19.90
2019-01-16T23:00:36.020Z,19.47
2019-01-16T23:03:09.872Z,20.13
2019-01-16T23:05:43.920Z,20.43
2019-01-16T23:08:20.810Z,19.80
2019-01-16T23:11:06.765Z,20.97
2019-01-16T23:13:43.613Z,21.80
2019-01-16T23:16:20.608Z,21.63
2019-01-16T23:18:57.618Z,21.77
2019-01-16T23:21:28.782Z,21.53
2019-01-16T23:24:14.740Z,22.53
2019-01-16T23:26:48.795Z,22.07
2019-01-16T23:29:22.516Z,22.80
2019-01-16T23:31:56.593Z,23.90
2019-01-16T23:34:33.218Z,23.70
2019-01-16T23:37:04.330Z,24.63
2019-01-16T23:39:38.356Z,24.70
2019-01-16T23:42:15.504Z,23.77
2019-01-16T23:45:06.218Z,25.50
2019-01-16T23:47:43.491Z,24.47
2019-01-16T23:50:23.794Z,25.60
2019-01-16T23:53:11.055Z,25.60
2019-01-16T23:55:58.465Z,26.30
2019-01-16T23:58:29.620Z,25.37
